createdAt,value
2023-02-16T00:00:51.961Z,83.78
2023-02-16T00:03:37.214Z,83.70
2023-02-16T00:06:24.140Z,83.98
2023-02-16T00:09:09.297Z,83.92
2023-02-16T00:12:13.413Z,84.15
2023-02-16T00:14:58.495Z,84.00
2023-02-16T00:17:43.849Z,83.83
2023-02-16T00:20:32.007Z,83.61
2023-02-16T00:23:17.495Z,83.48
2023-02-16T00:26:03.162Z,83.76
2023-02-16T00:28:54.209Z,84.13
2023-02-16T00:31:39.940Z,83.62
2023-02-16T00:34:25.334Z,84.41
2023-02-16T00:37:13.821Z,83.58
2023-02-16T00:40:01.314Z,84.02
2023-02-16T00:42:48.057Z,83.87
2023-02-16T00:45:37.346Z,83.99
2023-02-16T00:48:23.632Z,83.92
2023-02-16T00:51:25.182Z,83.29
2023-02-16T00:54:11.453Z,83.69
2023-02-16T00:56:57.662Z,83.68
2023-02-16T00:59:43.093Z,83.79
2023-02-16T01:02:29.155Z,83.54
2023-02-16T01:05:15.303Z,84.08
2023-02-16T01:08:19.668Z,84.07
2023-02-16T01:11:09.904Z,84.28
2023-02-16T01:14:00.840Z,84.28
2023-02-16T01:16:46.064Z,83.95
2023-02-16T01:19:31.320Z,84.11
2023-02-16T01:22:17.173Z,84.59
2023-02-16T01:25:02.286Z,84.51
2023-02-16T01:27:48.574Z,84.87
2023-02-16T01:30:33.796Z,84.86
2023-02-16T01:33:20.283Z,84.53
2023-02-16T01:36:06.875Z,84.78
2023-02-16T01:38:52.258Z,84.18
2023-02-16T01:42:05.937Z,85.38
2023-02-16T01:45:01.762Z,84.78
2023-02-16T01:47:57.390Z,85.23
2023-02-16T01:51:11.873Z,85.07
2023-02-16T01:54:27.501Z,85.25
2023-02-16T01:57:18.683Z,85.71
2023-02-16T02:00:12.567Z,85.68
2023-02-16T02:03:24.599Z,85.26
2023-02-16T02:06:18.029Z,85.53
2023-02-16T02:09:10.548Z,85.40
2023-02-16T02:12:22.866Z,84.84
2023-02-16T02:15:09.253Z,85.41
2023-02-16T02:17:54.457Z,84.85
2023-02-16T02:21:36.406Z,85.38
2023-02-16T02:24:49.683Z,85.34
2023-02-16T02:27:40.219Z,85.68
2023-02-16T02:30:54.767Z,85.28
2023-02-16T02:34:04.008Z,85.28
2023-02-16T02:37:19.405Z,85.37
2023-02-16T02:40:13.580Z,85.33
2023-02-16T02:43:13.488Z,85.48
2023-02-16T02:46:18.999Z,85.61
2023-02-16T02:49:05.227Z,85.58
2023-02-16T02:51:51.249Z,85.23
2023-02-16T02:54:58.779Z,85.30
2023-02-16T02:58:14.163Z,85.46
2023-02-16T03:01:00.206Z,85.17
2023-02-16T03:03:53.900Z,85.51
2023-02-16T03:06:44.272Z,85.35
2023-02-16T03:09:29.626Z,85.41
2023-02-16T03:12:35.720Z,86.08
2023-02-16T03:15:23.916Z,85.89
2023-02-16T03:18:30.994Z,85.29
2023-02-16T03:21:34.841Z,85.49
2023-02-16T03:24:47.639Z,85.16
2023-02-16T03:27:57.887Z,84.77
2023-02-16T03:30:45.214Z,85.30
2023-02-16T03:33:31.296Z,85.60
2023-02-16T03:36:16.699Z,85.48
2023-02-16T03:39:03.208Z,85.56
2023-02-16T03:41:51.408Z,85.18
2023-02-16T03:44:36.769Z,85.31
2023-02-16T03:47:22.162Z,84.91
2023-02-16T03:50:08.267Z,84.93
2023-02-16T03:53:06.502Z,84.72
2023-02-16T03:55:51.669Z,84.49
2023-02-16T03:58:36.847Z,84.31
2023-02-16T04:01:22.702Z,84.16
2023-02-16T04:04:08.345Z,83.85
2023-02-16T04:06:53.773Z,84.30
2023-02-16T04:09:39.037Z,84.21
2023-02-16T04:12:36.462Z,84.01
2023-02-16T04:15:24.406Z,83.77
2023-02-16T04:18:09.925Z,83.83
2023-02-16T04:20:55.207Z,84.15
2023-02-16T04:23:40.731Z,83.44
2023-02-16T04:26:26.001Z,83.78
2023-02-16T04:29:11.124Z,83.07
2023-02-16T04:31:56.462Z,83.21
2023-02-16T04:34:41.682Z,83.45
2023-02-16T04:37:27.236Z,83.26
2023-02-16T04:40:14.245Z,83.25
2023-02-16T04:42:59.508Z,82.68
2023-02-16T04:45:44.630Z,83.39
2023-02-16T04:48:30.109Z,82.89
2023-02-16T04:51:15.288Z,82.77
2023-02-16T04:54:00.907Z,82.77
2023-02-16T04:56:47.063Z,82.58
2023-02-16T04:59:32.280Z,83.32
2023-02-16T05:02:17.716Z,82.61
2023-02-16T05:05:03.241Z,83.26
2023-02-16T05:07:49.175Z,82.76
2023-02-16T05:10:34.317Z,82.55
2023-02-16T05:13:38.340Z,82.52
2023-02-16T05:16:24.777Z,82.18
2023-02-16T05:19:10.153Z,82.22
2023-02-16T05:21:55.345Z,82.80
2023-02-16T05:24:41.194Z,82.38
2023-02-16T05:27:30.003Z,82.54
2023-02-16T05:30:15.490Z,82.38
2023-02-16T05:33:00.723Z,82.98
2023-02-16T05:35:45.998Z,82.54
2023-02-16T05:38:31.304Z,82.67
2023-02-16T05:41:25.796Z,82.31
2023-02-16T05:44:11.835Z,82.23
2023-02-16T05:46:57.114Z,82.49
2023-02-16T05:49:42.386Z,82.22
2023-02-16T05:52:27.702Z,82.79
2023-02-16T05:55:13.123Z,82.48
2023-02-16T05:57:58.431Z,81.61
2023-02-16T06:00:43.976Z,82.18
2023-02-16T06:03:29.180Z,82.15
2023-02-16T06:06:14.724Z,82.13
2023-02-16T06:09:01.304Z,82.09
2023-02-16T06:11:46.559Z,81.63
2023-02-16T06:14:31.815Z,82.00
2023-02-16T06:17:17.267Z,81.94
2023-02-16T06:20:03.252Z,82.37
2023-02-16T06:22:48.753Z,81.90
2023-02-16T06:25:34.461Z,81.65
2023-02-16T06:28:20.052Z,81.54
2023-02-16T06:31:05.577Z,81.26
2023-02-16T06:33:51.344Z,81.98
2023-02-16T06:36:36.436Z,81.53
2023-02-16T06:39:21.812Z,81.14
2023-02-16T06:42:07.131Z,81.54
2023-02-16T06:44:52.452Z,81.12
2023-02-16T06:47:38.424Z,80.93
2023-02-16T06:50:23.474Z,80.61
2023-02-16T06:53:09.071Z,80.77
2023-02-16T06:55:54.377Z,80.76
2023-02-16T06:58:39.443Z,80.43
2023-02-16T07:01:26.094Z,80.13
2023-02-16T07:04:11.755Z,79.95
2023-02-16T07:06:56.896Z,79.38
2023-02-16T07:09:42.270Z,79.35
2023-02-16T07:12:27.581Z,79.91
2023-02-16T07:15:13.200Z,79.48
2023-02-16T07:17:58.633Z,78.86
2023-02-16T07:20:44.283Z,79.53
2023-02-16T07:23:29.600Z,79.18
2023-02-16T07:26:14.955Z,78.77
2023-02-16T07:29:00.275Z,78.93
2023-02-16T07:31:45.918Z,77.97
2023-02-16T07:34:31.583Z,78.20
2023-02-16T07:37:16.831Z,78.09
2023-02-16T07:40:02.136Z,78.41
2023-02-16T07:42:48.015Z,77.79
2023-02-16T07:45:33.923Z,77.67
2023-02-16T07:48:19.830Z,77.53
2023-02-16T07:51:05.797Z,77.60
2023-02-16T07:53:51.359Z,77.76
2023-02-16T07:56:36.885Z,76.36
2023-02-16T07:59:22.434Z,76.70
2023-02-16T08:02:14.282Z,77.33
2023-02-16T08:05:00.343Z,76.86
2023-02-16T08:07:46.838Z,77.04
2023-02-16T08:10:32.576Z,76.27
2023-02-16T08:13:17.813Z,75.74
2023-02-16T08:16:08.238Z,76.27
2023-02-16T08:18:56.266Z,75.20
2023-02-16T08:21:41.947Z,75.80
2023-02-16T08:24:27.133Z,76.29
2023-02-16T08:27:12.552Z,75.79
2023-02-16T08:29:57.669Z,76.04
2023-02-16T08:32:43.546Z,75.85
2023-02-16T08:35:31.968Z,75.15
2023-02-16T08:38:17.472Z,74.95
2023-02-16T08:41:03.035Z,74.89
2023-02-16T08:43:49.285Z,74.15
2023-02-16T08:46:36.061Z,74.05
2023-02-16T08:49:23.677Z,73.19
2023-02-16T08:52:09.975Z,73.45
2023-02-16T08:54:55.493Z,73.01
2023-02-16T08:57:40.716Z,71.92
2023-02-16T09:00:34.896Z,68.04
2023-02-16T09:03:20.176Z,64.61
2023-02-16T09:06:06.336Z,60.83
2023-02-16T09:08:53.700Z,58.34
2023-02-16T09:11:39.374Z,57.23
2023-02-16T09:14:24.843Z,56.78
2023-02-16T09:17:09.877Z,56.79
2023-02-16T09:19:55.395Z,58.75
2023-02-16T09:25:35.833Z,55.75
2023-02-16T09:28:21.451Z,52.59
2023-02-16T09:31:14.417Z,52.72
2023-02-16T09:34:02.622Z,55.10
2023-02-16T09:36:48.699Z,56.29
2023-02-16T09:39:33.990Z,57.62
2023-02-16T09:42:33.985Z,58.13
2023-02-16T09:45:21.436Z,58.19
2023-02-16T09:48:23.012Z,58.87
2023-02-16T09:51:11.495Z,59.16
2023-02-16T09:54:04.193Z,59.20
2023-02-16T09:56:56.974Z,57.73
2023-02-16T10:00:04.507Z,57.12
2023-02-16T10:03:09.341Z,56.39
2023-02-16T10:06:14.495Z,55.96
2023-02-16T10:09:11.382Z,56.89
2023-02-16T10:12:11.008Z,57.06
2023-02-16T10:15:13.980Z,56.23
2023-02-16T10:18:22.860Z,56.68
2023-02-16T10:21:17.718Z,56.78
2023-02-16T10:24:07.628Z,56.64
2023-02-16T10:27:08.216Z,57.31
2023-02-16T10:29:54.921Z,56.52
2023-02-16T10:32:55.382Z,57.03
2023-02-16T10:35:47.530Z,57.38
2023-02-16T10:39:20.309Z,57.09
2023-02-16T10:42:21.429Z,56.23
2023-02-16T10:45:21.155Z,56.27
2023-02-16T10:48:06.442Z,55.72
2023-02-16T10:51:00.897Z,55.15
2023-02-16T10:53:50.406Z,55.21
2023-02-16T10:56:38.792Z,54.46
2023-02-16T10:59:31.618Z,54.23
2023-02-16T11:02:25.266Z,54.79
2023-02-16T11:05:32.168Z,55.15
2023-02-16T11:08:20.524Z,54.52
2023-02-16T11:11:10.145Z,54.45
2023-02-16T11:14:03.315Z,54.40
2023-02-16T11:17:04.094Z,54.67
2023-02-16T11:20:05.488Z,54.91
2023-02-16T11:22:51.614Z,54.65
2023-02-16T11:25:38.046Z,54.22
2023-02-16T11:28:33.743Z,54.32
2023-02-16T11:31:33.534Z,54.50
2023-02-16T11:34:31.651Z,53.10
2023-02-16T11:37:25.378Z,53.36
2023-02-16T11:40:22.429Z,53.69
2023-02-16T11:43:17.833Z,53.45
2023-02-16T11:46:07.942Z,53.03
2023-02-16T11:48:53.726Z,53.10
2023-02-16T11:51:38.902Z,52.52
2023-02-16T11:54:24.390Z,51.65
2023-02-16T11:57:15.680Z,51.50
2023-02-16T12:00:09.138Z,51.65
2023-02-16T12:03:24.980Z,51.61
2023-02-16T12:06:59.919Z,51.10
2023-02-16T12:09:57.767Z,50.22
2023-02-16T12:13:20.360Z,50.25
2023-02-16T12:16:34.596Z,50.63
2023-02-16T12:19:46.189Z,50.39
2023-02-16T12:22:48.736Z,50.23
2023-02-16T12:25:52.986Z,49.88
2023-02-16T12:28:45.851Z,49.60
2023-02-16T12:31:47.672Z,49.11
2023-02-16T12:34:52.226Z,49.63
2023-02-16T12:37:53.980Z,49.25
2023-02-16T12:41:11.446Z,49.93
2023-02-16T12:44:02.876Z,49.24
2023-02-16T12:46:56.826Z,48.20
2023-02-16T12:50:00.966Z,49.64
2023-02-16T12:52:53.978Z,49.89
2023-02-16T12:55:56.043Z,50.81
2023-02-16T12:59:00.443Z,50.96
2023-02-16T13:01:48.194Z,51.02
2023-02-16T13:04:50.438Z,51.07
2023-02-16T13:07:37.289Z,50.73
2023-02-16T13:11:00.135Z,50.51
2023-02-16T13:13:47.769Z,50.03
2023-02-16T13:16:51.953Z,49.61
2023-02-16T13:19:36.809Z,49.32
2023-02-16T13:22:52.920Z,50.12
2023-02-16T13:26:22.742Z,50.39
2023-02-16T13:29:47.587Z,49.71
2023-02-16T13:32:56.692Z,49.63
2023-02-16T13:36:03.433Z,49.51
2023-02-16T13:39:00.665Z,49.65
2023-02-16T13:41:57.434Z,49.15
2023-02-16T13:44:47.772Z,49.28
2023-02-16T13:47:38.453Z,49.46
2023-02-16T13:50:28.270Z,49.44
2023-02-16T13:53:18.571Z,49.70
2023-02-16T13:56:22.511Z,50.07
2023-02-16T13:59:17.315Z,49.09
2023-02-16T14:02:03.377Z,49.66
2023-02-16T14:04:50.445Z,49.82
2023-02-16T14:07:38.276Z,50.01
2023-02-16T14:10:55.858Z,50.71
2023-02-16T14:13:47.169Z,50.81
2023-02-16T14:16:34.521Z,50.87
2023-02-16T14:19:25.828Z,51.10
2023-02-16T14:22:12.224Z,51.26
2023-02-16T14:25:01.093Z,51.40
2023-02-16T14:28:05.602Z,51.55
2023-02-16T14:30:56.871Z,51.53
2023-02-16T14:34:15.604Z,51.94
2023-02-16T14:37:16.297Z,51.76
2023-02-16T14:40:48.271Z,51.56
2023-02-16T14:43:40.744Z,51.31
2023-02-16T14:46:52.094Z,51.31
2023-02-16T14:50:09.307Z,51.58
2023-02-16T14:53:13.164Z,51.71
2023-02-16T14:56:26.717Z,51.98
2023-02-16T14:59:33.104Z,52.14
2023-02-16T15:02:33.821Z,52.09
2023-02-16T15:05:29.646Z,52.66
2023-02-16T15:08:23.308Z,52.70
2023-02-16T15:11:23.016Z,52.86
2023-02-16T15:14:11.029Z,52.22
2023-02-16T15:16:57.907Z,52.54
2023-02-16T15:19:44.129Z,52.49
2023-02-16T15:22:29.827Z,52.66
2023-02-16T15:25:29.338Z,52.98
2023-02-16T15:28:25.892Z,52.83
2023-02-16T15:31:24.007Z,53.43
2023-02-16T15:34:26.288Z,53.95
2023-02-16T15:37:28.663Z,53.94
2023-02-16T15:40:25.468Z,54.13
2023-02-16T15:43:19.548Z,54.25
2023-02-16T15:46:08.100Z,54.50
2023-02-16T15:48:54.571Z,54.71
2023-02-16T15:51:41.445Z,54.79
2023-02-16T15:54:30.626Z,54.20
2023-02-16T15:57:38.051Z,54.66
2023-02-16T16:00:24.918Z,54.72
2023-02-16T16:03:15.602Z,54.91
2023-02-16T16:06:06.401Z,55.28
2023-02-16T16:08:51.941Z,55.31
2023-02-16T16:11:37.793Z,55.56
2023-02-16T16:14:24.247Z,56.22
2023-02-16T16:17:13.918Z,56.40
2023-02-16T16:20:24.555Z,56.26
2023-02-16T16:23:16.445Z,56.53
2023-02-16T16:26:01.708Z,56.74
2023-02-16T16:28:47.583Z,56.61
2023-02-16T16:31:38.492Z,56.87
2023-02-16T16:34:38.924Z,56.99
2023-02-16T16:37:29.188Z,56.98
2023-02-16T16:40:26.337Z,57.11
2023-02-16T16:43:18.757Z,57.58
2023-02-16T16:46:20.136Z,57.61
2023-02-16T16:49:15.731Z,57.83
2023-02-16T16:52:00.819Z,58.35
2023-02-16T16:54:48.912Z,58.23
2023-02-16T16:57:33.940Z,58.25
2023-02-16T17:00:20.789Z,58.42
2023-02-16T17:03:08.331Z,58.67
2023-02-16T17:05:53.531Z,58.33
2023-02-16T17:08:38.953Z,58.64
2023-02-16T17:11:24.407Z,59.19
2023-02-16T17:14:20.779Z,59.26
2023-02-16T17:17:08.622Z,59.39
2023-02-16T17:19:54.149Z,59.39
2023-02-16T17:22:39.565Z,59.57
2023-02-16T17:25:24.646Z,59.42
2023-02-16T17:28:11.810Z,59.76
2023-02-16T17:30:57.474Z,60.07
2023-02-16T17:33:43.026Z,59.93
2023-02-16T17:36:28.749Z,59.59
2023-02-16T17:39:14.116Z,59.64
2023-02-16T17:42:00.484Z,60.03
2023-02-16T17:44:45.897Z,59.94
2023-02-16T17:47:56.236Z,60.29
2023-02-16T17:50:41.713Z,60.39
2023-02-16T17:53:27.790Z,60.44
2023-02-16T17:56:15.539Z,60.78
2023-02-16T17:59:01.074Z,60.57
2023-02-16T18:01:46.637Z,61.21
2023-02-16T18:04:34.089Z,61.33
2023-02-16T18:07:19.674Z,61.26
2023-02-16T18:10:05.858Z,61.32
2023-02-16T18:12:51.094Z,61.38
2023-02-16T18:15:36.513Z,61.63
2023-02-16T18:18:21.968Z,61.89
2023-02-16T18:21:07.502Z,61.91
2023-02-16T18:23:52.997Z,61.98
2023-02-16T18:26:38.190Z,62.14
2023-02-16T18:29:23.660Z,62.13
2023-02-16T18:32:09.026Z,61.98
2023-02-16T18:34:54.505Z,62.14
2023-02-16T18:37:39.832Z,62.25
2023-02-16T18:40:25.224Z,62.41
2023-02-16T18:43:11.414Z,62.51
2023-02-16T18:45:56.750Z,62.52
2023-02-16T18:48:41.972Z,62.58
2023-02-16T18:51:29.312Z,62.11
2023-02-16T18:54:14.652Z,62.79
2023-02-16T18:56:59.995Z,62.46
2023-02-16T18:59:45.253Z,62.57
2023-02-16T19:02:30.454Z,62.76
2023-02-16T19:05:15.834Z,62.90
2023-02-16T19:08:01.391Z,62.57
2023-02-16T19:10:49.932Z,62.58
2023-02-16T19:13:35.165Z,62.42
2023-02-16T19:16:20.466Z,62.92
2023-02-16T19:19:06.929Z,62.68
2023-02-16T19:21:52.073Z,62.17
2023-02-16T19:24:37.444Z,62.55
2023-02-16T19:27:23.280Z,62.47
2023-02-16T19:30:09.380Z,62.50
